sensor_id;sensor_type;location;lat;lon;timestamp;P1;durP1;ratioP1;P2;durP2;ratioP2
22160;SDS011;49035;48.812;11.762;2022-08-19T00:02:03;68.47;;;45.42;;
22160;SDS011;49035;48.812;11.762;2022-08-19T00:04:30;61.47;;;39.35;;
22160;SDS011;49035;48.812;11.762;2022-08-19T00:06:59;66.57;;;42.75;;
22160;SDS011;49035;48.812;11.762;2022-08-19T00:09:25;74.45;;;45.30;;
22160;SDS011;49035;48.812;11.762;2022-08-19T00:11:52;73.25;;;45.50;;
22160;SDS011;49035;48.812;11.762;2022-08-19T00:14:19;74.47;;;45.20;;
22160;SDS011;49035;48.812;11.762;2022-08-19T00:16:45;72.13;;;44.20;;
22160;SDS011;49035;48.812;11.762;2022-08-19T00:19:12;72.18;;;45.40;;
22160;SDS011;49035;48.812;11.762;2022-08-19T00:21:39;72.20;;;44.97;;
22160;SDS011;49035;48.812;11.762;2022-08-19T00:24:06;75.75;;;45.70;;
22160;SDS011;49035;48.812;11.762;2022-08-19T00:26:33;64.38;;;42.53;;
22160;SDS011;49035;48.812;11.762;2022-08-19T00:28:59;62.70;;;42.13;;
22160;SDS011;49035;48.812;11.762;2022-08-19T00:31:26;67.00;;;41.65;;
22160;SDS011;49035;48.812;11.762;2022-08-19T00:33:52;65.07;;;40.88;;
22160;SDS011;49035;48.812;11.762;2022-08-19T00:36:19;67.35;;;43.20;;
22160;SDS011;49035;48.812;11.762;2022-08-19T00:38:45;65.95;;;43.50;;
22160;SDS011;49035;48.812;11.762;2022-08-19T00:41:14;71.70;;;44.63;;
22160;SDS011;49035;48.812;11.762;2022-08-19T00:44:02;67.43;;;44.28;;
22160;SDS011;49035;48.812;11.762;2022-08-19T00:46:29;69.55;;;42.72;;
22160;SDS011;49035;48.812;11.762;2022-08-19T00:48:56;72.50;;;44.42;;
22160;SDS011;49035;48.812;11.762;2022-08-19T00:51:22;74.95;;;45.83;;
22160;SDS011;49035;48.812;11.762;2022-08-19T00:53:51;69.00;;;44.38;;
22160;SDS011;49035;48.812;11.762;2022-08-19T00:56:18;67.47;;;40.40;;
22160;SDS011;49035;48.812;11.762;2022-08-19T00:58:44;72.13;;;42.95;;
22160;SDS011;49035;48.812;11.762;2022-08-19T01:01:09;65.95;;;40.58;;
22160;SDS011;49035;48.812;11.762;2022-08-19T01:03:35;66.70;;;41.28;;
22160;SDS011;49035;48.812;11.762;2022-08-19T01:06:01;71.22;;;42.60;;
22160;SDS011;49035;48.812;11.762;2022-08-19T01:08:27;67.55;;;41.67;;
22160;SDS011;49035;48.812;11.762;2022-08-19T01:10:54;64.65;;;41.75;;
22160;SDS011;49035;48.812;11.762;2022-08-19T01:13:23;63.42;;;40.40;;
22160;SDS011;49035;48.812;11.762;2022-08-19T01:15:52;65.70;;;39.08;;
22160;SDS011;49035;48.812;11.762;2022-08-19T01:18:21;61.47;;;40.15;;
22160;SDS011;49035;48.812;11.762;2022-08-19T01:20:48;64.30;;;38.97;;
22160;SDS011;49035;48.812;11.762;2022-08-19T01:23:16;63.78;;;39.53;;
22160;SDS011;49035;48.812;11.762;2022-08-19T01:25:46;56.88;;;38.65;;
22160;SDS011;49035;48.812;11.762;2022-08-19T01:28:27;60.95;;;39.10;;
22160;SDS011;49035;48.812;11.762;2022-08-19T01:30:53;56.17;;;36.75;;
22160;SDS011;49035;48.812;11.762;2022-08-19T01:33:20;58.00;;;38.47;;
22160;SDS011;49035;48.812;11.762;2022-08-19T01:35:46;56.95;;;38.10;;
22160;SDS011;49035;48.812;11.762;2022-08-19T01:38:23;55.50;;;37.97;;
22160;SDS011;49035;48.812;11.762;2022-08-19T01:40:51;51.95;;;36.28;;
22160;SDS011;49035;48.812;11.762;2022-08-19T01:43:17;55.90;;;36.28;;
22160;SDS011;49035;48.812;11.762;2022-08-19T01:45:44;46.47;;;34.47;;
22160;SDS011;49035;48.812;11.762;2022-08-19T01:48:11;46.90;;;34.75;;
22160;SDS011;49035;48.812;11.762;2022-08-19T01:50:37;46.55;;;35.20;;
22160;SDS011;49035;48.812;11.762;2022-08-19T01:53:05;46.42;;;33.40;;
22160;SDS011;49035;48.812;11.762;2022-08-19T01:55:35;50.42;;;35.85;;
22160;SDS011;49035;48.812;11.762;2022-08-19T01:58:04;47.20;;;34.58;;
22160;SDS011;49035;48.812;11.762;2022-08-19T02:00:32;45.92;;;33.60;;
22160;SDS011;49035;48.812;11.762;2022-08-19T02:02:58;55.40;;;34.42;;
22160;SDS011;49035;48.812;11.762;2022-08-19T02:05:24;48.88;;;34.05;;
22160;SDS011;49035;48.812;11.762;2022-08-19T02:07:50;46.75;;;32.92;;
22160;SDS011;49035;48.812;11.762;2022-08-19T02:10:17;47.75;;;33.35;;
22160;SDS011;49035;48.812;11.762;2022-08-19T02:12:46;46.08;;;33.90;;
22160;SDS011;49035;48.812;11.762;2022-08-19T02:15:14;46.63;;;31.73;;
22160;SDS011;49035;48.812;11.762;2022-08-19T02:17:44;45.88;;;31.80;;
22160;SDS011;49035;48.812;11.762;2022-08-19T02:20:10;47.28;;;31.85;;
22160;SDS011;49035;48.812;11.762;2022-08-19T02:22:40;41.78;;;30.92;;
22160;SDS011;49035;48.812;11.762;2022-08-19T02:25:08;45.05;;;30.65;;
22160;SDS011;49035;48.812;11.762;2022-08-19T02:27:37;39.83;;;30.73;;
22160;SDS011;49035;48.812;11.762;2022-08-19T02:30:16;41.90;;;30.83;;
22160;SDS011;49035;48.812;11.762;2022-08-19T02:33:11;46.95;;;31.15;;
22160;SDS011;49035;48.812;11.762;2022-08-19T02:39:52;42.17;;;31.92;;
22160;SDS011;49035;48.812;11.762;2022-08-19T02:45:01;52.92;;;35.03;;
22160;SDS011;49035;48.812;11.762;2022-08-19T02:47:27;51.60;;;36.10;;
22160;SDS011;49035;48.812;11.762;2022-08-19T02:49:52;53.03;;;36.00;;
22160;SDS011;49035;48.812;11.762;2022-08-19T02:52:18;56.70;;;36.05;;
22160;SDS011;49035;48.812;11.762;2022-08-19T02:54:44;51.17;;;34.90;;
22160;SDS011;49035;48.812;11.762;2022-08-19T02:57:09;51.50;;;37.28;;
22160;SDS011;49035;48.812;11.762;2022-08-19T02:59:35;52.25;;;35.25;;
22160;SDS011;49035;48.812;11.762;2022-08-19T03:02:01;52.22;;;35.45;;
22160;SDS011;49035;48.812;11.762;2022-08-19T03:04:26;57.83;;;38.72;;
22160;SDS011;49035;48.812;11.762;2022-08-19T03:06:52;60.22;;;38.80;;
22160;SDS011;49035;48.812;11.762;2022-08-19T03:09:19;58.20;;;38.53;;
22160;SDS011;49035;48.812;11.762;2022-08-19T03:11:47;63.00;;;38.17;;
22160;SDS011;49035;48.812;11.762;2022-08-19T03:14:13;62.05;;;40.20;;
22160;SDS011;49035;48.812;11.762;2022-08-19T03:16:47;66.18;;;41.45;;
22160;SDS011;49035;48.812;11.762;2022-08-19T03:19:19;73.07;;;43.70;;
22160;SDS011;49035;48.812;11.762;2022-08-19T03:21:47;66.25;;;41.78;;
22160;SDS011;49035;48.812;11.762;2022-08-19T03:24:13;66.90;;;41.42;;
22160;SDS011;49035;48.812;11.762;2022-08-19T03:30:08;63.97;;;41.00;;
22160;SDS011;49035;48.812;11.762;2022-08-19T03:32:59;60.70;;;38.42;;
22160;SDS011;49035;48.812;11.762;2022-08-19T03:39:06;57.97;;;37.67;;
22160;SDS011;49035;48.812;11.762;2022-08-19T03:42:17;58.45;;;37.30;;
22160;SDS011;49035;48.812;11.762;2022-08-19T03:44:51;64.10;;;40.78;;
22160;SDS011;49035;48.812;11.762;2022-08-19T03:47:17;60.10;;;39.80;;
22160;SDS011;49035;48.812;11.762;2022-08-19T03:49:43;62.70;;;39.40;;
22160;SDS011;49035;48.812;11.762;2022-08-19T03:52:09;57.85;;;38.58;;
22160;SDS011;49035;48.812;11.762;2022-08-19T03:54:35;57.17;;;36.85;;
22160;SDS011;49035;48.812;11.762;2022-08-19T03:57:03;55.17;;;36.78;;
22160;SDS011;49035;48.812;11.762;2022-08-19T03:59:33;56.25;;;36.05;;
22160;SDS011;49035;48.812;11.762;2022-08-19T04:05:40;60.25;;;37.33;;
22160;SDS011;49035;48.812;11.762;2022-08-19T04:18:00;57.17;;;37.00;;
22160;SDS011;49035;48.812;11.762;2022-08-19T04:27:18;57.33;;;37.45;;
22160;SDS011;49035;48.812;11.762;2022-08-19T04:30:45;58.28;;;37.40;;
22160;SDS011;49035;48.812;11.762;2022-08-19T04:33:26;59.35;;;36.30;;
22160;SDS011;49035;48.812;11.762;2022-08-19T04:35:53;56.85;;;37.85;;
22160;SDS011;49035;48.812;11.762;2022-08-19T04:38:20;60.40;;;37.03;;
22160;SDS011;49035;48.812;11.762;2022-08-19T04:40:48;61.95;;;38.05;;
22160;SDS011;49035;48.812;11.762;2022-08-19T04:43:34;60.22;;;38.67;;
22160;SDS011;49035;48.812;11.762;2022-08-19T04:46:09;58.35;;;38.03;;
22160;SDS011;49035;48.812;11.762;2022-08-19T04:48:36;57.85;;;36.85;;
22160;SDS011;49035;48.812;11.762;2022-08-19T04:51:05;58.83;;;35.95;;
22160;SDS011;49035;48.812;11.762;2022-08-19T04:53:33;53.28;;;34.83;;
22160;SDS011;49035;48.812;11.762;2022-08-19T04:56:04;53.85;;;38.03;;
22160;SDS011;49035;48.812;11.762;2022-08-19T04:58:35;56.28;;;34.97;;
22160;SDS011;49035;48.812;11.762;2022-08-19T05:01:02;57.13;;;36.88;;
22160;SDS011;49035;48.812;11.762;2022-08-19T05:03:28;49.10;;;32.53;;
22160;SDS011;49035;48.812;11.762;2022-08-19T05:05:59;57.40;;;36.75;;
22160;SDS011;49035;48.812;11.762;2022-08-19T05:08:32;53.10;;;36.70;;
22160;SDS011;49035;48.812;11.762;2022-08-19T05:10:59;55.08;;;36.67;;
22160;SDS011;49035;48.812;11.762;2022-08-19T05:13:25;51.63;;;34.65;;
22160;SDS011;49035;48.812;11.762;2022-08-19T05:15:55;48.22;;;32.47;;
22160;SDS011;49035;48.812;11.762;2022-08-19T05:18:23;45.72;;;32.17;;
22160;SDS011;49035;48.812;11.762;2022-08-19T05:21:08;52.50;;;34.58;;
22160;SDS011;49035;48.812;11.762;2022-08-19T05:23:54;54.53;;;35.35;;
22160;SDS011;49035;48.812;11.762;2022-08-19T05:26:20;52.08;;;34.33;;
22160;SDS011;49035;48.812;11.762;2022-08-19T05:28:46;49.40;;;34.50;;
22160;SDS011;49035;48.812;11.762;2022-08-19T05:31:12;48.85;;;32.95;;
22160;SDS011;49035;48.812;11.762;2022-08-19T05:33:39;45.72;;;32.63;;
22160;SDS011;49035;48.812;11.762;2022-08-19T05:36:05;43.25;;;31.48;;
22160;SDS011;49035;48.812;11.762;2022-08-19T05:38:32;47.45;;;32.40;;
22160;SDS011;49035;48.812;11.762;2022-08-19T05:40:58;49.38;;;34.33;;
22160;SDS011;49035;48.812;11.762;2022-08-19T05:43:24;48.10;;;34.72;;
22160;SDS011;49035;48.812;11.762;2022-08-19T05:45:50;49.17;;;34.25;;
22160;SDS011;49035;48.812;11.762;2022-08-19T05:48:16;55.78;;;36.17;;
22160;SDS011;49035;48.812;11.762;2022-08-19T05:50:45;49.55;;;35.90;;
22160;SDS011;49035;48.812;11.762;2022-08-19T05:53:11;54.42;;;35.50;;
22160;SDS011;49035;48.812;11.762;2022-08-19T05:55:37;49.95;;;35.58;;
22160;SDS011;49035;48.812;11.762;2022-08-19T05:58:03;50.83;;;35.15;;
22160;SDS011;49035;48.812;11.762;2022-08-19T06:00:32;57.92;;;38.45;;
22160;SDS011;49035;48.812;11.762;2022-08-19T06:02:58;55.92;;;37.55;;
22160;SDS011;49035;48.812;11.762;2022-08-19T06:05:27;58.55;;;39.80;;
22160;SDS011;49035;48.812;11.762;2022-08-19T06:07:54;58.83;;;40.42;;
22160;SDS011;49035;48.812;11.762;2022-08-19T06:10:19;60.17;;;39.20;;
22160;SDS011;49035;48.812;11.762;2022-08-19T06:12:46;50.15;;;35.80;;
22160;SDS011;49035;48.812;11.762;2022-08-19T06:15:12;47.30;;;32.33;;
22160;SDS011;49035;48.812;11.762;2022-08-19T06:17:38;41.58;;;31.25;;
22160;SDS011;49035;48.812;11.762;2022-08-19T06:20:05;53.10;;;35.55;;
22160;SDS011;49035;48.812;11.762;2022-08-19T06:22:37;45.58;;;33.67;;
22160;SDS011;49035;48.812;11.762;2022-08-19T06:25:07;46.10;;;32.40;;
22160;SDS011;49035;48.812;11.762;2022-08-19T06:27:36;42.45;;;30.95;;
22160;SDS011;49035;48.812;11.762;2022-08-19T06:30:03;43.28;;;32.30;;
22160;SDS011;49035;48.812;11.762;2022-08-19T06:32:29;41.25;;;31.20;;
22160;SDS011;49035;48.812;11.762;2022-08-19T06:34:56;33.92;;;26.08;;
22160;SDS011;49035;48.812;11.762;2022-08-19T06:37:21;40.20;;;30.83;;
22160;SDS011;49035;48.812;11.762;2022-08-19T06:39:48;33.22;;;26.23;;
22160;SDS011;49035;48.812;11.762;2022-08-19T06:42:13;46.80;;;32.92;;
22160;SDS011;49035;48.812;11.762;2022-08-19T06:44:41;38.00;;;29.70;;
22160;SDS011;49035;48.812;11.762;2022-08-19T06:47:09;33.47;;;25.50;;
22160;SDS011;49035;48.812;11.762;2022-08-19T06:49:37;36.78;;;28.80;;
22160;SDS011;49035;48.812;11.762;2022-08-19T06:52:03;32.75;;;25.02;;
22160;SDS011;49035;48.812;11.762;2022-08-19T06:54:29;31.38;;;25.58;;
22160;SDS011;49035;48.812;11.762;2022-08-19T06:56:56;41.95;;;31.13;;
22160;SDS011;49035;48.812;11.762;2022-08-19T06:59:22;40.95;;;30.70;;
22160;SDS011;49035;48.812;11.762;2022-08-19T07:01:53;34.80;;;26.42;;
22160;SDS011;49035;48.812;11.762;2022-08-19T07:04:22;39.25;;;30.45;;
22160;SDS011;49035;48.812;11.762;2022-08-19T07:06:57;39.22;;;29.48;;
22160;SDS011;49035;48.812;11.762;2022-08-19T07:09:24;37.95;;;29.83;;
22160;SDS011;49035;48.812;11.762;2022-08-19T07:11:51;43.13;;;33.22;;
22160;SDS011;49035;48.812;11.762;2022-08-19T07:14:19;47.80;;;34.83;;
22160;SDS011;49035;48.812;11.762;2022-08-19T07:16:50;44.08;;;32.60;;
22160;SDS011;49035;48.812;11.762;2022-08-19T07:19:17;47.25;;;33.80;;
22160;SDS011;49035;48.812;11.762;2022-08-19T07:21:46;40.38;;;31.58;;
22160;SDS011;49035;48.812;11.762;2022-08-19T07:24:13;44.22;;;31.27;;
22160;SDS011;49035;48.812;11.762;2022-08-19T07:26:41;43.88;;;32.05;;
22160;SDS011;49035;48.812;11.762;2022-08-19T07:29:08;39.47;;;31.15;;
22160;SDS011;49035;48.812;11.762;2022-08-19T07:31:35;42.78;;;31.05;;
22160;SDS011;49035;48.812;11.762;2022-08-19T07:34:02;40.58;;;30.73;;
22160;SDS011;49035;48.812;11.762;2022-08-19T07:36:32;41.78;;;31.13;;
22160;SDS011;49035;48.812;11.762;2022-08-19T07:38:59;39.65;;;30.10;;
22160;SDS011;49035;48.812;11.762;2022-08-19T07:41:29;43.90;;;31.25;;
22160;SDS011;49035;48.812;11.762;2022-08-19T07:43:56;42.30;;;32.03;;
22160;SDS011;49035;48.812;11.762;2022-08-19T07:46:29;38.15;;;30.38;;
22160;SDS011;49035;48.812;11.762;2022-08-19T07:48:59;31.73;;;26.73;;
22160;SDS011;49035;48.812;11.762;2022-08-19T07:51:25;35.65;;;27.65;;
22160;SDS011;49035;48.812;11.762;2022-08-19T07:53:52;38.10;;;30.08;;
22160;SDS011;49035;48.812;11.762;2022-08-19T07:56:18;41.75;;;30.15;;
22160;SDS011;49035;48.812;11.762;2022-08-19T07:58:46;34.10;;;27.58;;
22160;SDS011;49035;48.812;11.762;2022-08-19T08:01:15;37.03;;;27.58;;
22160;SDS011;49035;48.812;11.762;2022-08-19T08:03:47;32.53;;;25.23;;
22160;SDS011;49035;48.812;11.762;2022-08-19T08:06:32;31.40;;;25.83;;
22160;SDS011;49035;48.812;11.762;2022-08-19T08:09:18;34.05;;;26.60;;
22160;SDS011;49035;48.812;11.762;2022-08-19T08:11:49;28.10;;;24.40;;
22160;SDS011;49035;48.812;11.762;2022-08-19T08:14:18;28.60;;;24.90;;
22160;SDS011;49035;48.812;11.762;2022-08-19T08:16:48;29.55;;;24.30;;
22160;SDS011;49035;48.812;11.762;2022-08-19T08:19:15;31.15;;;24.83;;
22160;SDS011;49035;48.812;11.762;2022-08-19T08:21:42;26.40;;;22.67;;
22160;SDS011;49035;48.812;11.762;2022-08-19T08:24:08;30.23;;;24.45;;
22160;SDS011;49035;48.812;11.762;2022-08-19T08:26:35;28.48;;;23.25;;
22160;SDS011;49035;48.812;11.762;2022-08-19T08:29:01;21.85;;;19.35;;
22160;SDS011;49035;48.812;11.762;2022-08-19T08:31:26;23.58;;;18.85;;
22160;SDS011;49035;48.812;11.762;2022-08-19T08:33:52;22.27;;;18.85;;
22160;SDS011;49035;48.812;11.762;2022-08-19T08:36:19;21.45;;;19.13;;
22160;SDS011;49035;48.812;11.762;2022-08-19T08:38:45;22.98;;;18.73;;
22160;SDS011;49035;48.812;11.762;2022-08-19T08:43:59;22.10;;;19.65;;
22160;SDS011;49035;48.812;11.762;2022-08-19T08:46:38;24.50;;;19.98;;
22160;SDS011;49035;48.812;11.762;2022-08-19T08:54:42;23.63;;;20.17;;
22160;SDS011;49035;48.812;11.762;2022-08-19T08:57:12;21.35;;;19.08;;
22160;SDS011;49035;48.812;11.762;2022-08-19T08:59:43;22.20;;;18.45;;
22160;SDS011;49035;48.812;11.762;2022-08-19T09:02:15;23.95;;;19.17;;
22160;SDS011;49035;48.812;11.762;2022-08-19T09:04:42;20.20;;;18.00;;
22160;SDS011;49035;48.812;11.762;2022-08-19T09:07:16;21.92;;;19.67;;
22160;SDS011;49035;48.812;11.762;2022-08-19T09:09:51;20.85;;;18.17;;
22160;SDS011;49035;48.812;11.762;2022-08-19T09:15:15;23.05;;;18.35;;
22160;SDS011;49035;48.812;11.762;2022-08-19T09:17:43;19.30;;;17.30;;
22160;SDS011;49035;48.812;11.762;2022-08-19T09:22:38;20.02;;;16.77;;
22160;SDS011;49035;48.812;11.762;2022-08-19T09:25:05;18.52;;;16.63;;
22160;SDS011;49035;48.812;11.762;2022-08-19T09:27:35;18.30;;;16.40;;
22160;SDS011;49035;48.812;11.762;2022-08-19T09:30:03;17.88;;;16.00;;
22160;SDS011;49035;48.812;11.762;2022-08-19T09:32:30;18.27;;;16.25;;
22160;SDS011;49035;48.812;11.762;2022-08-19T09:34:56;18.13;;;15.65;;
22160;SDS011;49035;48.812;11.762;2022-08-19T09:37:23;18.33;;;16.00;;
22160;SDS011;49035;48.812;11.762;2022-08-19T09:39:49;17.55;;;15.35;;
22160;SDS011;49035;48.812;11.762;2022-08-19T09:42:15;19.77;;;15.05;;
22160;SDS011;49035;48.812;11.762;2022-08-19T09:44:41;20.05;;;15.90;;
22160;SDS011;49035;48.812;11.762;2022-08-19T09:47:08;19.08;;;15.00;;
22160;SDS011;49035;48.812;11.762;2022-08-19T09:49:36;15.05;;;13.45;;
22160;SDS011;49035;48.812;11.762;2022-08-19T09:52:02;16.25;;;13.10;;
22160;SDS011;49035;48.812;11.762;2022-08-19T09:54:28;19.20;;;13.73;;
22160;SDS011;49035;48.812;11.762;2022-08-19T09:56:54;17.20;;;14.05;;
22160;SDS011;49035;48.812;11.762;2022-08-19T09:59:22;15.98;;;13.48;;
22160;SDS011;49035;48.812;11.762;2022-08-19T10:01:48;17.25;;;12.88;;
22160;SDS011;49035;48.812;11.762;2022-08-19T10:04:14;14.75;;;12.95;;
22160;SDS011;49035;48.812;11.762;2022-08-19T10:06:40;16.67;;;13.88;;
22160;SDS011;49035;48.812;11.762;2022-08-19T10:09:07;15.50;;;13.18;;
22160;SDS011;49035;48.812;11.762;2022-08-19T10:11:34;15.13;;;13.52;;
22160;SDS011;49035;48.812;11.762;2022-08-19T10:14:02;15.18;;;13.52;;
22160;SDS011;49035;48.812;11.762;2022-08-19T10:16:30;14.95;;;13.35;;
22160;SDS011;49035;48.812;11.762;2022-08-19T10:18:57;16.77;;;14.43;;
22160;SDS011;49035;48.812;11.762;2022-08-19T10:21:28;22.13;;;15.68;;
22160;SDS011;49035;48.812;11.762;2022-08-19T10:23:56;16.75;;;14.02;;
22160;SDS011;49035;48.812;11.762;2022-08-19T10:26:28;15.95;;;13.43;;
22160;SDS011;49035;48.812;11.762;2022-08-19T10:28:55;21.85;;;14.65;;
22160;SDS011;49035;48.812;11.762;2022-08-19T10:31:22;17.83;;;14.63;;
22160;SDS011;49035;48.812;11.762;2022-08-19T10:33:50;17.00;;;13.90;;
22160;SDS011;49035;48.812;11.762;2022-08-19T10:36:23;15.38;;;12.75;;
22160;SDS011;49035;48.812;11.762;2022-08-19T10:38:52;14.55;;;11.80;;
22160;SDS011;49035;48.812;11.762;2022-08-19T10:41:22;14.38;;;11.77;;
22160;SDS011;49035;48.812;11.762;2022-08-19T10:43:59;16.30;;;12.40;;
22160;SDS011;49035;48.812;11.762;2022-08-19T10:46:27;17.75;;;12.52;;
22160;SDS011;49035;48.812;11.762;2022-08-19T10:48:56;13.77;;;11.82;;
22160;SDS011;49035;48.812;11.762;2022-08-19T10:51:21;15.40;;;12.35;;
22160;SDS011;49035;48.812;11.762;2022-08-19T10:54:06;15.50;;;13.07;;
22160;SDS011;49035;48.812;11.762;2022-08-19T10:56:32;13.30;;;10.73;;
22160;SDS011;49035;48.812;11.762;2022-08-19T10:59:27;13.23;;;11.43;;
22160;SDS011;49035;48.812;11.762;2022-08-19T11:01:57;11.45;;;9.93;;
22160;SDS011;49035;48.812;11.762;2022-08-19T11:04:24;12.25;;;10.88;;
22160;SDS011;49035;48.812;11.762;2022-08-19T11:06:50;13.32;;;11.25;;
22160;SDS011;49035;48.812;11.762;2022-08-19T11:09:21;12.30;;;10.98;;
22160;SDS011;49035;48.812;11.762;2022-08-19T11:11:50;13.05;;;11.73;;
22160;SDS011;49035;48.812;11.762;2022-08-19T11:14:18;15.88;;;11.95;;
22160;SDS011;49035;48.812;11.762;2022-08-19T11:16:46;14.75;;;12.93;;
22160;SDS011;49035;48.812;11.762;2022-08-19T11:19:12;16.55;;;13.23;;
22160;SDS011;49035;48.812;11.762;2022-08-19T11:21:42;17.33;;;13.65;;
22160;SDS011;49035;48.812;11.762;2022-08-19T11:24:10;15.50;;;13.10;;
22160;SDS011;49035;48.812;11.762;2022-08-19T11:26:40;16.30;;;13.10;;
22160;SDS011;49035;48.812;11.762;2022-08-19T11:29:07;15.25;;;13.43;;
22160;SDS011;49035;48.812;11.762;2022-08-19T11:31:36;19.98;;;14.65;;
22160;SDS011;49035;48.812;11.762;2022-08-19T11:34:05;19.02;;;15.05;;
22160;SDS011;49035;48.812;11.762;2022-08-19T11:36:32;15.88;;;14.15;;
22160;SDS011;49035;48.812;11.762;2022-08-19T11:39:00;18.90;;;15.98;;
22160;SDS011;49035;48.812;11.762;2022-08-19T11:41:26;24.05;;;16.95;;
22160;SDS011;49035;48.812;11.762;2022-08-19T11:43:53;19.80;;;15.80;;
22160;SDS011;49035;48.812;11.762;2022-08-19T11:46:20;18.25;;;16.30;;
22160;SDS011;49035;48.812;11.762;2022-08-19T11:48:47;21.10;;;17.40;;
22160;SDS011;49035;48.812;11.762;2022-08-19T11:51:16;22.20;;;17.50;;
22160;SDS011;49035;48.812;11.762;2022-08-19T11:53:44;21.95;;;17.70;;
22160;SDS011;49035;48.812;11.762;2022-08-19T11:56:10;22.35;;;18.52;;
22160;SDS011;49035;48.812;11.762;2022-08-19T11:58:37;23.27;;;18.98;;
22160;SDS011;49035;48.812;11.762;2022-08-19T12:01:07;22.98;;;19.90;;
22160;SDS011;49035;48.812;11.762;2022-08-19T12:03:34;20.75;;;18.27;;
22160;SDS011;49035;48.812;11.762;2022-08-19T12:06:10;24.88;;;18.23;;
22160;SDS011;49035;48.812;11.762;2022-08-19T12:08:39;20.45;;;17.58;;
22160;SDS011;49035;48.812;11.762;2022-08-19T12:11:06;22.00;;;18.83;;
22160;SDS011;49035;48.812;11.762;2022-08-19T12:13:34;19.58;;;16.85;;
22160;SDS011;49035;48.812;11.762;2022-08-19T12:16:09;22.02;;;17.65;;
22160;SDS011;49035;48.812;11.762;2022-08-19T12:18:37;20.38;;;17.35;;
22160;SDS011;49035;48.812;11.762;2022-08-19T12:21:08;18.90;;;15.98;;
22160;SDS011;49035;48.812;11.762;2022-08-19T12:23:35;19.88;;;17.15;;
22160;SDS011;49035;48.812;11.762;2022-08-19T12:26:02;21.13;;;16.90;;
22160;SDS011;49035;48.812;11.762;2022-08-19T12:28:28;23.13;;;18.42;;
22160;SDS011;49035;48.812;11.762;2022-08-19T12:30:53;22.90;;;19.40;;
22160;SDS011;49035;48.812;11.762;2022-08-19T12:33:21;20.10;;;17.58;;
22160;SDS011;49035;48.812;11.762;2022-08-19T12:35:49;23.10;;;18.80;;
22160;SDS011;49035;48.812;11.762;2022-08-19T12:38:16;22.88;;;19.35;;
22160;SDS011;49035;48.812;11.762;2022-08-19T12:40:46;22.58;;;17.98;;
22160;SDS011;49035;48.812;11.762;2022-08-19T12:43:12;24.83;;;18.88;;
22160;SDS011;49035;48.812;11.762;2022-08-19T12:45:40;23.05;;;19.73;;
22160;SDS011;49035;48.812;11.762;2022-08-19T12:48:07;22.35;;;18.27;;
22160;SDS011;49035;48.812;11.762;2022-08-19T12:50:33;22.27;;;18.98;;
22160;SDS011;49035;48.812;11.762;2022-08-19T12:52:59;23.15;;;19.30;;
22160;SDS011;49035;48.812;11.762;2022-08-19T12:55:24;22.55;;;16.75;;
22160;SDS011;49035;48.812;11.762;2022-08-19T12:57:53;21.10;;;17.15;;
22160;SDS011;49035;48.812;11.762;2022-08-19T13:00:19;20.50;;;17.73;;
22160;SDS011;49035;48.812;11.762;2022-08-19T13:02:47;19.92;;;17.83;;
22160;SDS011;49035;48.812;11.762;2022-08-19T13:05:19;21.10;;;18.02;;
22160;SDS011;49035;48.812;11.762;2022-08-19T13:07:48;22.13;;;17.30;;
22160;SDS011;49035;48.812;11.762;2022-08-19T13:10:16;24.58;;;18.48;;
22160;SDS011;49035;48.812;11.762;2022-08-19T13:12:44;27.77;;;18.60;;
22160;SDS011;49035;48.812;11.762;2022-08-19T13:15:12;26.73;;;19.25;;
22160;SDS011;49035;48.812;11.762;2022-08-19T13:17:39;29.38;;;21.40;;
22160;SDS011;49035;48.812;11.762;2022-08-19T13:20:05;31.17;;;22.85;;
22160;SDS011;49035;48.812;11.762;2022-08-19T13:22:34;31.58;;;23.23;;
22160;SDS011;49035;48.812;11.762;2022-08-19T13:25:04;36.35;;;24.67;;
22160;SDS011;49035;48.812;11.762;2022-08-19T13:27:30;28.60;;;22.55;;
22160;SDS011;49035;48.812;11.762;2022-08-19T13:29:56;29.45;;;22.52;;
22160;SDS011;49035;48.812;11.762;2022-08-19T13:32:40;30.27;;;22.55;;
22160;SDS011;49035;48.812;11.762;2022-08-19T13:35:25;30.10;;;22.85;;
22160;SDS011;49035;48.812;11.762;2022-08-19T13:37:50;34.45;;;25.00;;
22160;SDS011;49035;48.812;11.762;2022-08-19T13:40:17;30.60;;;23.85;;
22160;SDS011;49035;48.812;11.762;2022-08-19T13:42:47;30.40;;;22.67;;
22160;SDS011;49035;48.812;11.762;2022-08-19T13:45:15;32.85;;;23.35;;
22160;SDS011;49035;48.812;11.762;2022-08-19T13:47:44;30.00;;;23.73;;
22160;SDS011;49035;48.812;11.762;2022-08-19T13:50:12;29.58;;;22.92;;
22160;SDS011;49035;48.812;11.762;2022-08-19T13:52:39;34.63;;;24.60;;
22160;SDS011;49035;48.812;11.762;2022-08-19T13:55:06;30.50;;;23.98;;
22160;SDS011;49035;48.812;11.762;2022-08-19T13:57:33;27.95;;;22.33;;
22160;SDS011;49035;48.812;11.762;2022-08-19T13:59:59;30.02;;;23.17;;
22160;SDS011;49035;48.812;11.762;2022-08-19T14:02:25;28.65;;;22.42;;
22160;SDS011;49035;48.812;11.762;2022-08-19T14:04:51;29.33;;;21.48;;
22160;SDS011;49035;48.812;11.762;2022-08-19T14:07:17;30.85;;;21.35;;
22160;SDS011;49035;48.812;11.762;2022-08-19T14:09:43;28.60;;;21.70;;
22160;SDS011;49035;48.812;11.762;2022-08-19T14:12:08;28.00;;;21.63;;
22160;SDS011;49035;48.812;11.762;2022-08-19T14:14:37;27.17;;;21.25;;
22160;SDS011;49035;48.812;11.762;2022-08-19T14:17:07;17.50;;;13.63;;
22160;SDS011;49035;48.812;11.762;2022-08-19T14:19:34;13.95;;;9.63;;
22160;SDS011;49035;48.812;11.762;2022-08-19T14:22:00;8.25;;;7.28;;
22160;SDS011;49035;48.812;11.762;2022-08-19T14:24:26;10.38;;;6.93;;
22160;SDS011;49035;48.812;11.762;2022-08-19T14:26:52;10.07;;;7.32;;
22160;SDS011;49035;48.812;11.762;2022-08-19T14:29:17;9.13;;;6.60;;
22160;SDS011;49035;48.812;11.762;2022-08-19T14:31:43;9.38;;;6.57;;
22160;SDS011;49035;48.812;11.762;2022-08-19T14:34:09;8.32;;;6.60;;
22160;SDS011;49035;48.812;11.762;2022-08-19T14:36:36;11.93;;;8.20;;
22160;SDS011;49035;48.812;11.762;2022-08-19T14:39:02;11.20;;;8.82;;
22160;SDS011;49035;48.812;11.762;2022-08-19T14:41:28;11.70;;;8.93;;
22160;SDS011;49035;48.812;11.762;2022-08-19T14:43:55;14.75;;;10.57;;
22160;SDS011;49035;48.812;11.762;2022-08-19T14:46:23;15.70;;;11.02;;
22160;SDS011;49035;48.812;11.762;2022-08-19T14:48:51;17.00;;;11.68;;
22160;SDS011;49035;48.812;11.762;2022-08-19T14:51:18;16.20;;;11.98;;
22160;SDS011;49035;48.812;11.762;2022-08-19T14:53:44;17.23;;;13.02;;
22160;SDS011;49035;48.812;11.762;2022-08-19T14:56:11;18.83;;;13.07;;
22160;SDS011;49035;48.812;11.762;2022-08-19T14:58:39;19.80;;;13.27;;
22160;SDS011;49035;48.812;11.762;2022-08-19T15:01:07;18.85;;;14.48;;
22160;SDS011;49035;48.812;11.762;2022-08-19T15:03:33;17.83;;;12.98;;
22160;SDS011;49035;48.812;11.762;2022-08-19T15:05:59;20.92;;;13.93;;